Últimos artigos:
Visita à exposição MOTION no Guggenheim de Bilbao
MSK144, FT8… using an IC-9700 and WSJT-X
Resolvendo um problema de áudio no GNU Radio
Converter um número Real para o formato binário em vírgula flutuante segundo a Norma IEEE-754
VirtualBox sobre Debian 10 (buster) não encontra dispositivos USB
Falta de som no Morse Runner em Linux?
Últimas fotos:
Últimos METARs:
LPAZ 011530Z 34012KT 9999 FEW020 BKN030 17...
LPFR 011530Z 04012KT 020V080 9999 SCT014 S...
LPHR 011530Z 01008G21KT 310V060 9999 FEW01...
LPLA 011500Z /////KT 9999 FEW025 SCT030 20...
LPMA 011530Z 03008KT 350V070 9999 SCT015 2...
LPPD 011530Z 02009KT 350V050 9999 FEW020 S...
LPPR 011530Z 11004KT 070V130 CAVOK 18/09 Q...
LPPS 011530Z 35016KT 9999 SCT014 20/14 Q10...
LPPT 011530Z 04010KT CAVOK 15/10 Q1012=
Últimos QSOs:
2022/11/06-21:07 2m CT1DMC (RUI)
2022/10/23-20:02 2m CT1ETE (PAULO)
2022/10/23-20:00 2m EA8BGO (JUAN)
2022/08/06-20:45 6m CT1ILT (FILIPE)
2022/08/05-09:40 2m CT2HKN (MG)
2022/08/05-09:37 2m CT1HIX/P ((GOMES))
  UTC
Rpi-6 CPU Temp: 0.0 °C (19Z)
IN51oq 1611Z /////KT //// 22/14 Q1014=
337133